Flugplatz - Wetter - Augsburg

[Quelle: ADDS]
METAR
EDMA 240650Z 13005KT CAVOK 05/02 Q1015 =
TAF
EDMA 240603Z 2406/2415 15007KT CAVOK =
SR / SS: 06:40 / 15:31 UTC (Günzburg 2017-11-24)

Flugplatz - Wetter - Laupheim

[Quelle: ADDS]
METAR
ETHL 240620Z 26003KT 9999 FEW070 SCT090 06/02 Q1015 BLU+BLU+ =
TAF
ETHL 240545Z 2406/2415 23008KT 9999 NSW FEW080 SCT230 =

Notice: Undefined index: sun in /homepages/1/d158740339/htdocs/joomla/modules/mod_wx/tmpl/default.php on line 13

Flugplatz - Wetter - Memmingen

[Quelle: ADDS]
METAR
EDJA 240650Z 20008KT CAVOK 04/01 Q1015 =
TAF
EDJA 240500Z 2406/2415 20010KT CAVOK =

Notice: Undefined index: sun in /homepages/1/d158740339/htdocs/joomla/modules/mod_wx/tmpl/default.php on line 13

Flugplatz - Wetter - Neuburg/Donau

[Quelle: ADDS]
METAR
ETSN 240620Z 14001KT 9999 FEW100 SCT210 01/00 Q1015 BLU+BLU+ =
TAF
ETSN 240515Z 2406/2415 VRB03KT 9999 NSW SCT100 SCT240 BY ETGL =

Notice: Undefined index: sun in /homepages/1/d158740339/htdocs/joomla/modules/mod_wx/tmpl/default.php on line 13

Flugplatz - Wetter - Stuttgart

[Quelle: ADDS]
METAR
EDDS 240650Z VRB02KT CAVOK 08/04 Q1013 NOSIG =
TAF
EDDS 240500Z 2406/2506 17002KT CAVOK BECMG 2409/2411 22008KT BECMG 2420/2422 21003KT PROB40 TEMPO 2503/2506 RA BKN013 =

Notice: Undefined index: sun in /homepages/1/d158740339/htdocs/joomla/modules/mod_wx/tmpl/default.php on line 13

Flugplatz - Wetter - Niederstetten

[Quelle: ADDS]
METAR
ETHN 240620Z 18008KT 9999 SCT090 08/04 Q1012 BLU+BLU+ =
TAF
ETHN 240503Z 2406/2415 20010KT 9999 NSW SCT050 BKN250 =

Notice: Undefined index: sun in /homepages/1/d158740339/htdocs/joomla/modules/mod_wx/tmpl/default.php on line 13